Time;durP1;ratioP1;P1;durP2;ratioP2;P2;SDS_P1;SDS_P2;PMS_P1;PMS_P2;Temp;Humidity;BMP_temperature;BMP_pressure;BME280_temperature;BME280_humidity;BME280_pressure;Samples;Min_cycle;Max_cycle;Signal;HPM_P1;HPM_P2
2023/06/14 00:00:17;;;;;;;0.70;0.60;;;;;;;13.81;45.04;102200.91;6144126;23;20024;-71
2023/06/14 00:02:44;;;;;;;2.65;1.25;;;;;;;13.77;44.98;102209.66;6146363;23;20327;-69
2023/06/14 00:05:12;;;;;;;1.73;0.70;;;;;;;13.73;45.25;102207.97;6142514;23;20027;-70
2023/06/14 00:07:42;;;;;;;1.15;0.60;;;;;;;13.70;45.41;102205.38;6147672;23;20033;-69
2023/06/14 00:10:09;;;;;;;4.53;1.92;;;;;;;13.65;45.39;102200.16;6143041;23;20525;-70
2023/06/14 00:12:37;;;;;;;3.55;0.80;;;;;;;13.59;45.36;102202.81;6144962;23;20140;-70
2023/06/14 00:15:07;;;;;;;1.88;1.15;;;;;;;13.58;45.71;102208.97;6140803;23;20088;-69
2023/06/14 00:17:34;;;;;;;4.20;0.90;;;;;;;13.54;45.97;102204.63;6147037;23;20462;-69
2023/06/14 00:20:03;;;;;;;6.07;0.70;;;;;;;13.51;46.23;102207.25;6146196;23;20143;-70
2023/06/14 00:22:30;;;;;;;2.65;0.85;;;;;;;13.47;46.11;102216.06;6143507;23;20096;-69
2023/06/14 00:24:57;;;;;;;1.80;1.00;;;;;;;13.44;46.46;102210.84;6141338;23;20097;-69
2023/06/14 00:27:24;;;;;;;3.22;0.70;;;;;;;13.41;46.35;102206.47;6143057;23;20027;-70
2023/06/14 00:29:51;;;;;;;1.33;0.77;;;;;;;13.38;46.68;102206.50;6127700;23;20025;-69
2023/06/14 00:32:24;;;;;;;1.42;0.70;;;;;;;13.36;46.60;102199.53;6139751;23;20472;-70
2023/06/14 00:34:51;;;;;;;7.57;0.60;;;;;;;13.33;46.99;102204.78;6146460;23;20096;-70
2023/06/14 00:37:18;;;;;;;3.15;0.60;;;;;;;13.28;46.70;102205.69;6146600;23;20494;-69
2023/06/14 00:39:44;;;;;;;3.83;0.95;;;;;;;13.27;47.12;102209.19;6144320;23;20043;-69
2023/06/14 00:42:11;;;;;;;1.30;0.82;;;;;;;13.21;46.91;102203.09;6143559;23;20025;-69
2023/06/14 00:44:38;;;;;;;6.10;0.80;;;;;;;13.20;47.42;102212.69;6145511;23;20028;-69
2023/06/14 00:47:05;;;;;;;1.02;0.60;;;;;;;13.17;47.42;102210.09;6146707;23;20435;-69
2023/06/14 00:49:34;;;;;;;2.28;0.70;;;;;;;13.15;47.79;102209.25;6145230;23;20356;-69
2023/06/14 00:52:02;;;;;;;4.55;0.90;;;;;;;13.12;47.59;102209.28;6145921;23;20025;-69
2023/06/14 00:54:29;;;;;;;3.80;0.70;;;;;;;13.10;48.00;102205.78;6148918;23;20056;-70
2023/06/14 00:56:56;;;;;;;4.13;0.93;;;;;;;13.06;48.01;102217.16;6146176;23;20032;-69
2023/06/14 00:59:23;;;;;;;1.08;0.60;;;;;;;13.04;47.96;102205.81;6142137;23;20024;-69
2023/06/14 01:01:50;;;;;;;2.65;0.98;;;;;;;13.02;48.07;102208.44;6143903;23;20029;-69
2023/06/14 01:04:16;;;;;;;2.25;0.65;;;;;;;12.99;48.52;102207.59;6144730;23;20093;-69
2023/06/14 01:06:54;;;;;;;0.85;0.52;;;;;;;12.98;48.21;102203.22;6147001;23;20036;-69
2023/06/14 01:09:40;;;;;;;3.28;0.70;;;;;;;12.96;48.13;102207.59;6145481;23;20026;-69
2023/06/14 01:12:14;;;;;;;1.65;0.65;;;;;;;12.92;48.27;102201.50;6143770;23;20127;-69
2023/06/14 01:14:42;;;;;;;4.80;0.75;;;;;;;12.90;48.51;102208.50;6145484;23;20032;-69
2023/06/14 01:17:16;;;;;;;2.63;0.70;;;;;;;12.86;48.40;102206.75;6145950;23;20022;-69
2023/06/14 01:19:44;;;;;;;1.73;1.00;;;;;;;12.83;48.57;102212.94;6143618;23;20061;-70
2023/06/14 01:22:12;;;;;;;2.53;0.60;;;;;;;12.80;48.62;102206.81;6146229;23;20025;-70
2023/06/14 01:24:44;;;;;;;4.30;0.77;;;;;;;12.76;48.62;102203.31;6144105;23;20024;-69
2023/06/14 01:27:13;;;;;;;2.97;1.00;;;;;;;12.74;48.84;102206.84;6145017;23;20595;-69
2023/06/14 01:29:45;;;;;;;0.85;0.70;;;;;;;12.71;49.36;102212.97;6144059;23;20036;-69
2023/06/14 01:32:12;;;;;;;3.05;0.98;;;;;;;12.69;49.66;102219.94;6147341;23;20350;-69
2023/06/14 01:34:40;;;;;;;1.17;0.68;;;;;;;12.69;49.59;102219.94;6144699;23;20334;-72
2023/06/14 01:37:07;;;;;;;3.55;0.80;;;;;;;12.68;50.02;102212.09;6143193;23;20028;-70
2023/06/14 01:39:35;;;;;;;7.18;1.20;;;;;;;12.66;50.12;102213.84;6145401;23;20648;-70
2023/06/14 01:42:06;;;;;;;2.15;0.80;;;;;;;12.64;50.00;102211.25;6145311;23;20033;-69
2023/06/14 01:44:33;;;;;;;1.70;0.80;;;;;;;12.65;50.57;102212.13;6148327;23;20121;-70
2023/06/14 01:47:00;;;;;;;3.13;0.80;;;;;;;12.61;50.36;102206.03;6149930;23;20338;-69
2023/06/14 01:49:28;;;;;;;2.80;0.60;;;;;;;12.63;50.36;102211.25;6144568;23;20053;-70
2023/06/14 01:51:55;;;;;;;1.05;0.77;;;;;;;12.62;50.48;102213.00;6147579;23;20408;-69
2023/06/14 01:54:22;;;;;;;3.83;0.80;;;;;;;12.62;50.67;102217.38;6148887;23;20100;-69
2023/06/14 01:56:49;;;;;;;5.55;0.70;;;;;;;12.62;50.87;102218.25;6146510;23;20048;-69
2023/06/14 01:59:18;;;;;;;2.28;0.80;;;;;;;12.62;51.04;102212.13;6147267;23;20476;-69
2023/06/14 02:01:46;;;;;;;4.18;0.90;;;;;;;12.61;51.15;102206.03;6147137;23;20021;-69
2023/06/14 02:04:13;;;;;;;3.03;0.70;;;;;;;12.62;51.20;102220.00;6146160;23;20072;-69
2023/06/14 02:06:40;;;;;;;4.63;1.50;;;;;;;12.63;51.41;102209.50;6143675;23;20168;-69
2023/06/14 02:09:07;;;;;;;3.47;0.75;;;;;;;12.63;51.52;102214.75;6143066;23;20028;-69
2023/06/14 02:11:33;;;;;;;4.32;0.88;;;;;;;12.63;51.80;102204.25;6147320;23;20025;-74
2023/06/14 02:14:01;;;;;;;3.05;0.70;;;;;;;12.65;51.84;102213.00;6148329;23;20018;-74
2023/06/14 02:16:30;;;;;;;2.42;1.23;;;;;;;12.66;52.01;102199.00;6147340;23;20100;-76
2023/06/14 02:18:57;;;;;;;1.88;0.77;;;;;;;12.67;52.00;102197.28;6149175;23;20333;-76
2023/06/14 02:21:24;;;;;;;3.60;0.73;;;;;;;12.69;52.38;102203.34;6148907;23;20468;-76
2023/06/14 02:23:51;;;;;;;1.92;0.80;;;;;;;12.69;52.35;102200.72;6147088;23;20028;-75
2023/06/14 02:26:18;;;;;;;2.63;1.33;;;;;;;12.70;52.45;102202.50;6149532;23;20512;-76
2023/06/14 02:28:45;;;;;;;2.47;0.60;;;;;;;12.71;52.79;102205.09;6145532;23;20022;-76
2023/06/14 02:31:12;;;;;;;3.88;1.67;;;;;;;12.73;52.94;102200.72;6146619;23;20022;-76
2023/06/14 02:33:40;;;;;;;1.77;1.00;;;;;;;12.76;53.04;102200.72;6146469;23;20028;-76
2023/06/14 02:36:07;;;;;;;4.13;0.82;;;;;;;12.78;52.90;102203.34;6148928;23;20029;-74
2023/06/14 02:38:34;;;;;;;3.95;1.48;;;;;;;12.80;53.03;102205.03;6142908;23;20028;-74
2023/06/14 02:41:01;;;;;;;3.72;0.82;;;;;;;12.82;53.07;102203.28;6147583;23;20028;-75
2023/06/14 02:43:30;;;;;;;0.85;0.60;;;;;;;12.85;53.35;102193.69;6144612;23;20415;-74
2023/06/14 02:45:57;;;;;;;1.90;0.70;;;;;;;12.86;53.42;102200.66;6147733;23;20064;-75
2023/06/14 02:48:24;;;;;;;2.70;0.82;;;;;;;12.89;53.11;102201.50;6142105;23;20018;-75
2023/06/14 02:50:52;;;;;;;1.90;0.85;;;;;;;12.91;53.36;102204.13;6146091;23;20459;-74
2023/06/14 02:53:20;;;;;;;6.65;0.98;;;;;;;12.94;53.49;102204.13;6147062;23;20022;-75
2023/06/14 02:55:48;;;;;;;3.10;0.77;;;;;;;12.92;53.85;102195.38;6146085;23;20029;-76
2023/06/14 02:58:15;;;;;;;3.30;1.58;;;;;;;12.97;53.44;102204.97;6146294;23;20029;-74
2023/06/14 03:00:43;;;;;;;3.13;0.88;;;;;;;13.01;53.79;102205.84;6147861;23;20032;-76
2023/06/14 03:03:13;;;;;;;6.18;1.25;;;;;;;13.02;53.68;102207.56;6144708;23;20079;-76
2023/06/14 03:05:45;;;;;;;5.13;0.85;;;;;;;13.04;53.88;102209.31;6145166;23;20029;-75
2023/06/14 03:08:16;;;;;;;1.33;1.17;;;;;;;13.07;54.21;102205.78;6148765;23;20576;-76
2023/06/14 03:10:44;;;;;;;4.45;0.90;;;;;;;13.10;54.03;102210.16;6145412;23;20458;-76
2023/06/14 03:13:12;;;;;;;1.30;0.95;;;;;;;13.12;54.10;102213.63;6147869;23;20022;-76
2023/06/14 03:15:41;;;;;;;3.90;1.10;;;;;;;13.14;54.10;102222.38;6148573;23;20041;-75
2023/06/14 03:18:09;;;;;;;3.47;0.80;;;;;;;13.15;54.26;102219.75;6148881;23;20096;-75
2023/06/14 03:20:36;;;;;;;2.65;0.95;;;;;;;13.17;54.30;102223.22;6149338;23;20704;-76
2023/06/14 03:23:03;;;;;;;2.47;0.90;;;;;;;13.20;54.45;102231.06;6149021;23;20025;-75
2023/06/14 03:25:32;;;;;;;2.95;1.20;;;;;;;13.21;54.81;102232.81;6149006;23;20029;-75
2023/06/14 03:27:59;;;;;;;1.52;0.93;;;;;;;13.23;55.10;102233.69;6147798;23;20027;-76
2023/06/14 03:30:26;;;;;;;3.80;1.23;;;;;;;13.26;54.94;102232.81;6149785;23;20079;-76
2023/06/14 03:32:55;;;;;;;2.08;0.90;;;;;;;13.28;55.15;102229.28;6149024;23;20025;-75
2023/06/14 03:35:22;;;;;;;1.27;0.80;;;;;;;13.32;55.28;102226.66;6148121;23;20032;-76
2023/06/14 03:37:49;;;;;;;1.88;0.95;;;;;;;13.35;55.56;102224.00;6148329;23;20021;-76
2023/06/14 03:40:17;;;;;;;2.38;0.70;;;;;;;13.40;55.78;102230.09;6149103;23;20484;-76
2023/06/14 03:42:45;;;;;;;1.30;0.95;;;;;;;13.43;55.72;102219.56;6148250;23;20762;-76
2023/06/14 03:45:12;;;;;;;2.53;1.00;;;;;;;13.46;55.93;102215.19;6149730;23;20105;-76
2023/06/14 03:47:39;;;;;;;2.92;0.90;;;;;;;13.52;55.99;102214.28;6149866;23;20385;-76
2023/06/14 03:50:07;;;;;;;3.05;1.05;;;;;;;13.57;55.86;102222.97;6138869;23;21111;-76
2023/06/14 03:52:34;;;;;;;10.75;1.13;;;;;;;13.63;55.94;102224.66;6147918;23;20482;-75
2023/06/14 03:55:02;;;;;;;4.00;1.10;;;;;;;13.69;56.25;102222.88;6148075;23;20054;-76
2023/06/14 03:57:30;;;;;;;4.32;1.35;;;;;;;13.75;56.47;102224.59;6149031;23;20407;-77
2023/06/14 03:59:59;;;;;;;3.22;0.80;;;;;;;13.82;56.52;102223.63;6147581;23;20017;-77
2023/06/14 04:02:28;;;;;;;4.32;1.15;;;;;;;13.89;56.49;102227.09;6149401;23;20056;-76
2023/06/14 04:04:55;;;;;;;3.47;0.88;;;;;;;13.98;56.50;102231.41;6147947;23;20462;-76
2023/06/14 04:07:23;;;;;;;6.35;1.00;;;;;;;14.05;56.43;102222.56;6148162;23;20018;-76
2023/06/14 04:09:50;;;;;;;1.23;0.75;;;;;;;14.12;56.61;102222.50;6148174;23;20029;-76
2023/06/14 04:12:17;;;;;;;1.88;0.85;;;;;;;14.21;56.43;102220.66;6147130;23;20036;-77
2023/06/14 04:14:44;;;;;;;5.43;1.35;;;;;;;14.29;56.30;102224.09;6147937;23;20021;-77
2023/06/14 04:17:12;;;;;;;2.05;0.90;;;;;;;14.39;56.58;102223.06;6147707;23;20096;-77
2023/06/14 04:19:39;;;;;;;1.95;0.93;;;;;;;14.47;56.18;102226.50;6147691;23;20837;-76
2023/06/14 04:22:07;;;;;;;4.13;1.48;;;;;;;14.58;56.10;102221.16;6149005;23;20027;-77
2023/06/14 04:24:34;;;;;;;1.63;1.10;;;;;;;14.69;56.23;102223.66;6149045;23;20017;-77
2023/06/14 04:27:02;;;;;;;2.03;1.23;;;;;;;14.79;56.37;102226.13;6148445;23;20033;-76
2023/06/14 04:29:29;;;;;;;4.97;0.93;;;;;;;14.90;56.34;102220.72;6148103;23;20021;-76
2023/06/14 04:31:58;;;;;;;3.25;1.15;;;;;;;15.02;56.35;102223.19;6147155;23;20029;-76
2023/06/14 04:34:29;;;;;;;2.50;0.88;;;;;;;15.12;55.99;102220.44;6148329;23;20405;-77
2023/06/14 04:36:58;;;;;;;3.95;1.00;;;;;;;15.25;55.93;102227.25;6147229;23;20450;-76
2023/06/14 04:39:25;;;;;;;1.52;0.98;;;;;;;15.35;55.86;102220.97;6149532;23;20022;-76
2023/06/14 04:41:56;;;;;;;2.22;0.70;;;;;;;15.48;55.55;102213.72;6147314;23;20051;-76
2023/06/14 04:44:29;;;;;;;2.25;0.93;;;;;;;15.60;55.38;102215.31;6149511;23;20022;-76
2023/06/14 04:46:58;;;;;;;1.38;0.73;;;;;;;15.70;55.49;102212.53;6146747;23;20022;-72
2023/06/14 04:49:27;;;;;;;2.30;1.05;;;;;;;15.82;55.25;102211.44;6146174;23;20028;-74
2023/06/14 04:51:59;;;;;;;3.17;1.20;;;;;;;15.97;55.19;102207.69;6144863;23;20393;-74
2023/06/14 04:54:25;;;;;;;3.65;0.95;;;;;;;16.07;55.94;102201.31;6146917;23;20022;-74
2023/06/14 04:56:55;;;;;;;1.83;0.70;;;;;;;16.26;55.13;102219.44;6146736;23;20021;-73
2023/06/14 04:59:22;;;;;;;2.28;1.10;;;;;;;16.44;54.41;102223.50;6145492;23;20029;-72
2023/06/14 05:01:49;;;;;;;3.28;0.90;;;;;;;16.60;53.95;102230.22;6143222;23;20025;-74
2023/06/14 05:04:16;;;;;;;0.95;0.70;;;;;;;16.75;53.85;102221.09;6148155;23;20021;-73
2023/06/14 05:06:47;;;;;;;2.00;0.85;;;;;;;16.97;53.70;102227.69;6148800;23;20350;-75
2023/06/14 05:09:15;;;;;;;2.75;0.98;;;;;;;17.10;53.44;102220.34;6148277;23;20029;-77
2023/06/14 05:11:44;;;;;;;6.00;1.20;;;;;;;17.30;53.64;102231.34;6149212;23;20027;-77
2023/06/14 05:14:11;;;;;;;1.42;0.88;;;;;;;17.45;53.22;102223.97;6148765;23;20466;-77
2023/06/14 05:16:38;;;;;;;1.83;0.70;;;;;;;17.59;53.36;102223.59;6150151;23;20024;-75
2023/06/14 05:19:05;;;;;;;2.47;0.82;;;;;;;17.74;53.27;102218.81;6150142;23;20021;-77
2023/06/14 05:21:34;;;;;;;3.08;0.90;;;;;;;17.93;52.61;102215.72;6149471;23;20021;-77
2023/06/14 05:24:03;;;;;;;6.47;1.02;;;;;;;18.10;52.02;102213.50;6151280;23;20084;-77
2023/06/14 05:26:30;;;;;;;2.78;1.10;;;;;;;18.28;51.56;102216.56;6149344;23;20029;-74
2023/06/14 05:28:57;;;;;;;2.70;0.77;;;;;;;18.42;51.71;102214.41;6149907;23;20032;-75
2023/06/14 05:31:25;;;;;;;5.18;1.40;;;;;;;18.56;51.63;102201.63;6148440;23;20036;-73
2023/06/14 05:33:52;;;;;;;4.50;0.90;;;;;;;18.76;51.01;102214.31;6149958;23;20025;-73
2023/06/14 05:36:21;;;;;;;2.45;0.90;;;;;;;18.93;51.22;102213.81;6145653;23;20021;-73
2023/06/14 05:38:47;;;;;;;5.63;0.85;;;;;;;19.10;50.77;102214.16;6151290;23;20132;-77
2023/06/14 05:41:16;;;;;;;2.25;0.63;;;;;;;19.27;50.54;102210.97;6149933;23;20031;-74
2023/06/14 05:43:43;;;;;;;4.78;0.80;;;;;;;19.43;50.13;102213.97;6149435;23;20026;-75
2023/06/14 05:46:09;;;;;;;4.00;0.70;;;;;;;19.58;49.73;102211.75;6148655;23;20022;-75
2023/06/14 05:48:37;;;;;;;2.85;0.90;;;;;;;19.71;49.10;102213.09;6149443;23;20027;-75
2023/06/14 05:51:04;;;;;;;2.08;0.65;;;;;;;19.83;49.04;102217.13;6147340;23;20026;-75
2023/06/14 05:53:31;;;;;;;3.08;0.88;;;;;;;19.96;48.37;102218.44;6148355;23;20055;-76
2023/06/14 05:55:57;;;;;;;2.28;0.70;;;;;;;20.08;48.35;102214.50;6149310;23;20026;-75
2023/06/14 05:58:26;;;;;;;1.23;0.60;;;;;;;20.18;48.02;102206.16;6148140;23;20021;-75
2023/06/14 06:00:53;;;;;;;2.80;0.70;;;;;;;20.31;47.77;102216.31;6150239;23;20027;-74
2023/06/14 06:03:20;;;;;;;0.70;0.65;;;;;;;20.38;47.17;102215.19;6147859;23;20064;-76
2023/06/14 06:05:47;;;;;;;1.05;0.77;;;;;;;20.48;47.20;102207.72;6149821;23;20030;-75
2023/06/14 06:08:16;;;;;;;1.65;0.65;;;;;;;20.56;46.73;102208.34;6145787;23;20021;-75
2023/06/14 06:10:43;;;;;;;1.00;0.60;;;;;;;20.62;46.20;102216.06;6148355;23;20028;-76
2023/06/14 06:13:10;;;;;;;2.08;0.95;;;;;;;20.70;46.53;102221.09;6151500;23;20028;-75
2023/06/14 06:15:38;;;;;;;2.75;0.70;;;;;;;20.78;45.94;102217.22;6146521;23;20387;-75
2023/06/14 06:18:06;;;;;;;2.92;0.80;;;;;;;20.87;45.11;102216.88;6150059;23;20349;-75
2023/06/14 06:20:33;;;;;;;1.35;0.80;;;;;;;20.94;45.19;102219.28;6150024;23;20084;-74
2023/06/14 06:23:00;;;;;;;2.67;0.70;;;;;;;21.01;44.96;102218.13;6148909;23;20345;-75
2023/06/14 06:25:27;;;;;;;8.13;0.90;;;;;;;21.08;44.45;102222.25;6150217;23;20029;-79
2023/06/14 06:27:55;;;;;;;1.02;0.70;;;;;;;21.14;43.80;102224.69;6154976;23;20446;-78
2023/06/14 06:30:22;;;;;;;2.40;0.73;;;;;;;21.20;43.71;102227.09;6150240;23;20130;-82
2023/06/14 06:32:51;;;;;;;2.13;0.68;;;;;;;21.23;43.38;102229.66;6148318;23;20059;-74
2023/06/14 06:35:18;;;;;;;6.15;1.00;;;;;;;21.18;42.88;102214.81;6148250;23;20041;-73
2023/06/14 06:37:45;;;;;;;3.92;0.50;;;;;;;21.33;43.03;102231.00;6149793;23;20022;-75
2023/06/14 06:40:12;;;;;;;1.55;0.80;;;;;;;21.41;43.29;102232.50;6148492;23;20458;-76
2023/06/14 06:42:39;;;;;;;5.03;0.73;;;;;;;21.51;42.77;102228.53;6148814;23;20022;-74
2023/06/14 06:45:07;;;;;;;3.85;0.68;;;;;;;21.60;42.69;102229.94;6148555;23;20024;-76
2023/06/14 06:47:33;;;;;;;2.63;0.70;;;;;;;21.69;41.90;102227.78;6150267;23;20017;-75
2023/06/14 06:50:02;;;;;;;1.30;0.80;;;;;;;21.73;41.35;102234.69;6149400;23;20395;-73
2023/06/14 06:52:29;;;;;;;1.60;0.60;;;;;;;21.73;41.43;102224.06;6143999;23;20025;-74
2023/06/14 06:54:57;;;;;;;1.02;0.60;;;;;;;21.87;40.49;102235.91;6150265;23;20335;-73
2023/06/14 06:57:23;;;;;;;3.70;0.60;;;;;;;21.93;40.31;102235.66;6148260;23;20026;-74
2023/06/14 06:59:50;;;;;;;1.85;0.50;;;;;;;22.02;40.62;102232.56;6146434;23;20968;-75
2023/06/14 07:02:17;;;;;;;2.38;0.60;;;;;;;22.16;39.87;102235.50;6141518;23;20028;-75
2023/06/14 07:04:44;;;;;;;2.00;0.95;;;;;;;22.31;39.22;102236.66;6142612;23;20022;-75
2023/06/14 07:07:13;;;;;;;1.10;0.60;;;;;;;22.49;38.21;102234.13;6144880;23;20686;-74
2023/06/14 07:09:41;;;;;;;4.13;0.68;;;;;;;22.62;37.04;102230.78;6145425;23;20494;-74
2023/06/14 07:12:08;;;;;;;0.65;0.65;;;;;;;22.74;37.90;102226.72;6144370;23;20049;-73
2023/06/14 07:14:35;;;;;;;0.90;0.60;;;;;;;22.85;37.45;102227.09;6144103;23;20522;-76
2023/06/14 07:17:02;;;;;;;2.80;0.50;;;;;;;22.96;37.67;102228.41;6144858;23;20024;-76
2023/06/14 07:19:30;;;;;;;1.95;0.68;;;;;;;23.07;37.33;102232.28;6143922;23;20028;-75
2023/06/14 07:21:58;;;;;;;3.72;0.70;;;;;;;23.21;37.95;102228.94;6145487;23;20096;-76
2023/06/14 07:24:28;;;;;;;3.90;0.60;;;;;;;23.32;37.11;102228.44;6145234;23;20584;-75
2023/06/14 07:26:56;;;;;;;1.55;0.60;;;;;;;23.44;36.97;102224.28;6145010;23;20079;-75
2023/06/14 07:29:23;;;;;;;2.45;0.55;;;;;;;23.61;36.15;102228.78;6144255;23;20080;-76
2023/06/14 07:31:49;;;;;;;1.10;0.60;;;;;;;23.73;36.74;102228.19;6146886;23;20028;-83
2023/06/14 07:34:17;;;;;;;2.95;0.55;;;;;;;23.77;37.17;102222.63;6149790;23;20064;-79
2023/06/14 07:36:44;;;;;;;2.65;1.38;;;;;;;23.98;35.86;102236.66;6150854;23;20053;-80
2023/06/14 07:39:11;;;;;;;4.60;0.60;;;;;;;24.10;35.60;102229.81;6146630;23;20029;-73
2023/06/14 07:41:40;;;;;;;0.98;0.70;;;;;;;24.24;35.61;102226.44;6143772;23;20021;-76
2023/06/14 07:44:07;;;;;;;4.80;0.80;;;;;;;24.38;35.56;102229.22;6144378;23;20096;-77
2023/06/14 07:46:34;;;;;;;2.58;1.00;;;;;;;24.53;35.70;102232.91;6146412;23;20092;-76
2023/06/14 07:49:01;;;;;;;1.73;0.70;;;;;;;24.63;34.78;102231.47;6142794;23;20092;-77
2023/06/14 07:51:28;;;;;;;2.10;0.70;;;;;;;24.69;34.58;102232.94;6145691;23;20029;-76
2023/06/14 07:53:56;;;;;;;2.05;0.60;;;;;;;24.74;34.79;102230.88;6143955;23;21079;-77
2023/06/14 07:56:23;;;;;;;1.35;0.50;;;;;;;24.83;34.29;102224.16;6146978;23;20104;-77
2023/06/14 07:58:51;;;;;;;2.10;1.30;;;;;;;24.89;33.48;102229.16;6147722;23;20024;-80
2023/06/14 08:01:19;;;;;;;3.00;0.60;;;;;;;24.95;32.84;102234.16;6151910;23;20124;-81
2023/06/14 08:03:46;;;;;;;1.65;0.50;;;;;;;25.01;32.16;102224.94;6109094;23;20021;-82
2023/06/14 08:06:13;;;;;;;2.20;0.57;;;;;;;25.11;30.83;102228.81;6130398;23;20104;-78
2023/06/14 08:08:40;;;;;;;0.98;0.57;;;;;;;25.17;29.41;102217.81;6142498;23;20036;-80
2023/06/14 08:11:07;;;;;;;2.47;0.63;;;;;;;25.23;27.62;102213.91;6147961;23;20096;-76
2023/06/14 08:13:34;;;;;;;8.23;0.77;;;;;;;25.27;27.50;102218.13;6140290;23;20021;-78
2023/06/14 08:16:04;;;;;;;0.85;0.60;;;;;;;25.29;26.91;102209.06;6147276;23;20057;-77
2023/06/14 08:18:31;;;;;;;3.88;0.88;;;;;;;25.32;26.68;102216.06;6148448;23;20036;-76
2023/06/14 08:20:58;;;;;;;0.70;0.50;;;;;;;25.35;27.70;102219.41;6147622;23;20021;-76
2023/06/14 08:23:25;;;;;;;0.80;0.52;;;;;;;25.38;27.09;102220.19;6142741;23;20393;-75
2023/06/14 08:25:52;;;;;;;3.42;0.80;;;;;;;25.40;26.94;102213.81;6145110;23;20052;-75
2023/06/14 08:28:19;;;;;;;3.92;0.75;;;;;;;25.42;26.93;102213.72;6145665;23;20357;-70
2023/06/14 08:30:46;;;;;;;3.67;0.70;;;;;;;25.45;26.53;102216.22;6141776;23;20022;-73
2023/06/14 08:33:14;;;;;;;5.70;2.17;;;;;;;25.48;27.05;102218.72;6139694;23;20121;-76
2023/06/14 08:35:41;;;;;;;2.78;0.70;;;;;;;25.51;26.65;102215.84;6144851;23;20076;-75
2023/06/14 08:38:08;;;;;;;6.32;0.80;;;;;;;25.52;26.30;102222.91;6144916;23;20533;-74
2023/06/14 08:40:38;;;;;;;2.63;0.95;;;;;;;25.55;26.46;102222.75;6145585;23;20021;-74
2023/06/14 08:43:05;;;;;;;7.10;1.15;;;;;;;25.58;26.87;102222.56;6152769;23;20028;-75
2023/06/14 08:45:32;;;;;;;4.70;0.75;;;;;;;25.62;26.68;102226.78;6149387;23;20386;-80
2023/06/14 08:48:01;;;;;;;6.18;0.50;;;;;;;25.63;26.58;102222.28;6147672;23;20100;-78
2023/06/14 08:50:31;;;;;;;3.60;0.75;;;;;;;25.67;26.36;102219.34;6151086;23;20028;-78
2023/06/14 08:53:02;;;;;;;2.40;0.70;;;;;;;25.69;26.39;102222.78;6147301;23;20021;-76
2023/06/14 08:55:30;;;;;;;3.42;0.77;;;;;;;25.73;27.00;102221.66;6143733;23;20776;-74
2023/06/14 08:57:59;;;;;;;7.95;1.08;;;;;;;25.62;26.86;102192.00;6142642;23;20028;-75
2023/06/14 09:00:27;;;;;;;2.10;0.88;;;;;;;25.79;27.17;102221.28;6146887;23;20022;-76
2023/06/14 09:02:57;;;;;;;9.48;0.68;;;;;;;25.84;26.90;102217.50;6145038;23;20056;-81
2023/06/14 09:05:25;;;;;;;7.28;0.90;;;;;;;25.87;27.45;102214.63;6151345;23;20017;-85
2023/06/14 09:07:54;;;;;;;2.53;0.70;;;;;;;25.84;27.95;102196.09;6148222;23;20028;-81
2023/06/14 09:10:22;;;;;;;2.83;1.02;;;;;;;25.90;28.26;102201.94;6151704;23;20019;-86
2023/06/14 09:12:49;;;;;;;5.20;0.82;;;;;;;25.90;28.28;102198.38;6149434;23;20031;-84
2023/06/14 09:15:16;;;;;;;2.90;0.70;;;;;;;25.99;28.36;102212.09;6147893;23;20028;-77
2023/06/14 09:17:44;;;;;;;1.73;1.10;;;;;;;26.02;28.22;102211.91;6146964;23;20017;-77
2023/06/14 09:20:13;;;;;;;5.88;1.00;;;;;;;26.05;28.72;102216.22;6140878;23;20446;-76
2023/06/14 09:22:41;;;;;;;4.50;1.00;;;;;;;26.04;29.01;102209.13;6145305;23;20064;-76
2023/06/14 09:25:12;;;;;;;8.10;1.05;;;;;;;26.11;28.66;102221.19;6145910;23;20025;-78
2023/06/14 09:27:40;;;;;;;7.18;1.52;;;;;;;26.08;27.99;102208.00;6149210;23;20092;-76
2023/06/14 09:30:10;;;;;;;5.40;0.90;;;;;;;26.15;27.81;102220.03;6143371;23;20021;-77
2023/06/14 09:32:38;;;;;;;2.28;0.98;;;;;;;26.17;28.35;102217.28;6145004;23;20674;-83
2023/06/14 09:35:06;;;;;;;2.60;1.10;;;;;;;26.08;27.86;102199.94;6150233;23;20068;-85
2023/06/14 09:37:34;;;;;;;1.33;0.88;;;;;;;26.20;27.62;102215.25;6143503;23;20029;-76
2023/06/14 09:40:02;;;;;;;3.40;1.10;;;;;;;26.21;28.13;102214.31;6146236;23;20022;-77
2023/06/14 09:42:30;;;;;;;2.22;1.00;;;;;;;26.27;27.78;102210.41;6139564;23;20095;-76
2023/06/14 09:44:58;;;;;;;2.38;1.15;;;;;;;26.29;27.91;102215.66;6143660;23;20353;-75
2023/06/14 09:47:26;;;;;;;2.72;1.55;;;;;;;26.30;28.26;102220.03;6143285;23;20028;-77
2023/06/14 09:49:54;;;;;;;1.23;0.90;;;;;;;26.31;28.36;102216.41;6141706;23;20022;-77
2023/06/14 09:52:22;;;;;;;2.92;0.82;;;;;;;26.32;28.54;102215.47;6143553;23;20025;-76
2023/06/14 09:54:50;;;;;;;2.35;1.33;;;;;;;26.33;28.63;102219.88;6143441;23;20022;-77
2023/06/14 09:57:17;;;;;;;2.78;1.00;;;;;;;26.33;29.29;102218.06;6142660;23;20028;-76
2023/06/14 09:59:47;;;;;;;2.88;1.25;;;;;;;26.35;28.95;102218.78;6143667;23;20024;-76
2023/06/14 10:02:23;;;;;;;1.20;1.10;;;;;;;26.36;28.98;102219.69;6145502;23;20384;-77
2023/06/14 10:04:57;;;;;;;2.22;0.82;;;;;;;26.36;29.15;102219.69;6146488;23;20026;-77
2023/06/14 10:07:27;;;;;;;3.45;1.48;;;;;;;26.34;28.59;102219.75;6143170;23;20108;-76
2023/06/14 10:09:55;;;;;;;3.05;0.95;;;;;;;26.33;28.65;102217.19;6144480;23;20081;-76
2023/06/14 10:12:22;;;;;;;2.00;1.00;;;;;;;26.33;28.55;102218.06;6130439;23;20412;-77
2023/06/14 10:14:53;;;;;;;3.42;0.90;;;;;;;26.35;28.29;102212.59;6146905;23;20341;-76
2023/06/14 10:17:26;;;;;;;1.60;1.05;;;;;;;26.34;27.97;102217.09;6144087;23;20022;-76
2023/06/14 10:19:57;;;;;;;3.10;0.90;;;;;;;26.35;28.45;102213.44;6143521;23;20021;-77
2023/06/14 10:22:30;;;;;;;2.22;0.77;;;;;;;26.38;28.43;102212.38;6146506;23;20044;-77
2023/06/14 10:24:57;;;;;;;3.08;1.20;;;;;;;26.40;28.55;102210.47;6142895;23;20048;-76
2023/06/14 10:27:24;;;;;;;3.85;1.05;;;;;;;26.37;28.90;102216.03;6145983;23;20510;-77
2023/06/14 10:30:08;;;;;;;1.13;0.98;;;;;;;26.38;28.50;102215.97;6143858;23;20691;-76
2023/06/14 10:32:35;;;;;;;2.10;1.02;;;;;;;26.35;29.47;102209.91;6146131;23;20021;-76
2023/06/14 10:35:05;;;;;;;2.20;1.10;;;;;;;26.34;28.89;102210.88;6143430;23;20354;-76
2023/06/14 10:37:32;;;;;;;5.30;1.25;;;;;;;26.33;29.34;102215.38;6141189;23;20088;-76
2023/06/14 10:40:00;;;;;;;3.67;0.98;;;;;;;26.33;28.57;102212.69;6144172;23;20454;-77
2023/06/14 10:42:32;;;;;;;5.47;1.38;;;;;;;26.33;28.94;102203.81;6145013;23;20021;-77
2023/06/14 10:45:00;;;;;;;2.35;0.90;;;;;;;26.32;28.17;102204.75;6145931;23;20021;-76
2023/06/14 10:47:32;;;;;;;2.20;0.85;;;;;;;26.33;28.29;102201.13;6142266;23;20524;-77
2023/06/14 10:50:06;;;;;;;3.42;0.82;;;;;;;26.33;28.43;102196.63;6144923;23;20025;-77
2023/06/14 10:52:35;;;;;;;1.77;1.10;;;;;;;26.32;28.05;102202.06;6141035;23;20022;-76
2023/06/14 10:55:11;;;;;;;4.30;1.10;;;;;;;26.29;28.24;102194.22;6144992;23;20026;-76
2023/06/14 10:57:39;;;;;;;1.17;1.05;;;;;;;26.30;28.68;102198.59;6142661;23;20052;-76
2023/06/14 11:00:13;;;;;;;1.85;1.05;;;;;;;26.29;28.23;102196.91;6145400;23;20021;-76
2023/06/14 11:03:26;;;;;;;3.28;1.10;;;;;;;26.29;28.57;102199.56;6142176;23;20025;-76
2023/06/14 11:05:55;;;;;;;1.40;1.30;;;;;;;26.27;28.08;102196.13;6141402;23;20807;-75
2023/06/14 11:09:06;;;;;;;3.15;1.15;;;;;;;26.29;28.98;102195.06;6146622;23;20017;-76
2023/06/14 11:11:34;;;;;;;2.92;1.30;;;;;;;26.27;28.60;102198.81;6145659;23;20018;-76
2023/06/14 11:14:02;;;;;;;5.13;1.27;;;;;;;26.26;28.94;102197.94;6144375;23;20158;-80
2023/06/14 11:16:31;;;;;;;5.60;1.10;;;;;;;26.25;29.12;102199.78;6147730;23;20021;-76
2023/06/14 11:18:58;;;;;;;2.58;0.95;;;;;;;26.21;28.41;102190.22;6142255;23;20100;-76
2023/06/14 11:21:31;;;;;;;4.57;1.48;;;;;;;26.16;28.12;102186.97;6146551;23;20604;-75
2023/06/14 11:23:58;;;;;;;1.45;0.88;;;;;;;26.16;27.60;102192.31;6147919;23;20021;-77
2023/06/14 11:26:28;;;;;;;1.83;1.48;;;;;;;26.14;27.45;102183.50;6144569;23;20104;-75
2023/06/14 11:28:59;;;;;;;1.98;0.80;;;;;;;26.12;27.75;102190.75;6145989;23;20044;-77